Time;durP1;ratioP1;P1;durP2;ratioP2;P2;SDS_P1;SDS_P2;PMS_P1;PMS_P2;Temp;Humidity;BMP_temperature;BMP_pressure;BME280_temperature;BME280_humidity;BME280_pressure;Samples;Min_cycle;Max_cycle;Signal;HPM_P1;HPM_P2
2022/04/04 00:00:18;;;;;;;11.35;9.75;;;;;;;3.60;nan;101745.66;5093794;28;20078;-56
2022/04/04 00:02:43;;;;;;;11.38;9.48;;;;;;;3.12;nan;101662.75;5093512;28;20062;-55
2022/04/04 00:05:09;;;;;;;11.30;9.45;;;;;;;3.52;nan;101731.72;5094119;28;20534;-53
2022/04/04 00:07:35;;;;;;;12.43;9.75;;;;;;;3.20;nan;101672.41;5093755;28;20054;-52
2022/04/04 00:10:01;;;;;;;12.77;9.80;;;;;;;3.61;nan;101727.47;5093462;28;20027;-53
2022/04/04 00:12:27;;;;;;;15.35;10.27;;;;;;;3.65;nan;101717.97;5092099;28;20123;-55
2022/04/04 00:14:52;;;;;;;13.85;9.48;;;;;;;3.68;nan;101731.00;5093250;28;20085;-51
2022/04/04 00:17:17;;;;;;;12.55;9.25;;;;;;;3.31;nan;101659.50;5093707;28;20113;-53
2022/04/04 00:19:43;;;;;;;12.02;8.93;;;;;;;3.68;nan;101711.03;5093489;28;20497;-54
2022/04/04 00:22:08;;;;;;;13.88;9.35;;;;;;;3.67;nan;101711.03;5092061;28;20061;-54
2022/04/04 00:24:34;;;;;;;13.63;9.20;;;;;;;3.67;nan;101693.69;5092116;28;20123;-53
2022/04/04 00:26:59;;;;;;;11.82;9.52;;;;;;;3.58;nan;101683.19;5093534;28;20111;-55
2022/04/04 00:29:25;;;;;;;14.38;9.38;;;;;;;3.38;nan;101637.88;5093263;28;20063;-50
2022/04/04 00:31:51;;;;;;;13.27;8.95;;;;;;;3.71;nan;101699.78;5108982;28;20047;-51
2022/04/04 00:34:16;;;;;;;16.65;8.23;;;;;;;3.61;nan;101667.59;5093150;28;20048;-55
2022/04/04 00:36:43;;;;;;;12.23;8.45;;;;;;;3.44;nan;101627.53;5093347;28;20040;-55
2022/04/04 00:39:09;;;;;;;10.07;7.60;;;;;;;3.75;nan;101676.41;5093075;28;20032;-54
2022/04/04 00:41:34;;;;;;;11.48;7.57;;;;;;;3.67;nan;101669.38;5092797;28;20048;-56
2022/04/04 00:43:59;;;;;;;8.38;7.20;;;;;;;3.26;nan;101580.53;5092803;28;20086;-54
2022/04/04 00:46:24;;;;;;;12.18;7.55;;;;;;;3.32;nan;101598.78;5091621;28;20048;-57
2022/04/04 00:48:50;;;;;;;12.70;8.40;;;;;;;3.67;nan;101649.44;5093239;28;20120;-55
2022/04/04 00:51:15;;;;;;;15.35;7.55;;;;;;;3.31;nan;101587.50;5091570;28;20082;-53
2022/04/04 00:53:41;;;;;;;8.18;7.10;;;;;;;3.46;nan;101599.78;5091536;28;20032;-57
2022/04/04 00:56:07;;;;;;;9.88;7.60;;;;;;;3.36;nan;101574.53;5092570;28;20043;-55
2022/04/04 00:58:36;;;;;;;10.77;6.78;;;;;;;3.52;nan;101598.97;5092432;28;20067;-56
2022/04/04 01:01:02;;;;;;;10.60;7.13;;;;;;;3.77;nan;101643.41;5092556;28;20032;-56
2022/04/04 01:03:27;;;;;;;13.20;7.18;;;;;;;3.32;nan;101537.22;5091195;28;20028;-55
2022/04/04 01:05:54;;;;;;;10.40;7.25;;;;;;;3.86;nan;101627.00;5092694;28;20119;-55
2022/04/04 01:08:20;;;;;;;16.13;6.97;;;;;;;3.84;nan;101603.56;5092317;28;20502;-55
2022/04/04 01:10:45;;;;;;;11.05;7.05;;;;;;;3.93;nan;101594.94;5092187;28;20032;-53
2022/04/04 01:13:12;;;;;;;9.02;7.47;;;;;;;3.66;nan;101534.84;5092208;28;20024;-53
2022/04/04 01:15:37;;;;;;;10.18;7.35;;;;;;;4.13;nan;101600.25;5092136;28;20499;-52
2022/04/04 01:18:07;;;;;;;12.98;7.10;;;;;;;4.19;nan;101590.75;5090809;28;20032;-56
2022/04/04 01:20:34;;;;;;;16.15;8.18;;;;;;;4.24;nan;101607.28;5092197;28;20034;-55
2022/04/04 01:23:00;;;;;;;10.80;7.28;;;;;;;4.24;nan;101603.78;5091022;28;20024;-57
2022/04/04 01:25:27;;;;;;;8.43;6.93;;;;;;;4.27;nan;101596.88;5090836;28;20399;-55
2022/04/04 01:27:55;;;;;;;13.45;7.40;;;;;;;4.24;nan;101576.00;5091975;28;20078;-55
2022/04/04 01:30:21;;;;;;;14.65;7.68;;;;;;;3.94;nan;101506.38;5092307;28;20031;-52
2022/04/04 01:32:49;;;;;;;14.73;7.90;;;;;;;4.37;nan;101577.81;5091713;28;20055;-56
2022/04/04 01:35:14;;;;;;;10.70;7.97;;;;;;;4.34;nan;101561.28;5092127;28;20377;-56
2022/04/04 01:37:40;;;;;;;10.90;7.85;;;;;;;3.91;nan;101482.06;5091974;28;20047;-56
2022/04/04 01:40:06;;;;;;;13.27;8.25;;;;;;;4.25;nan;101543.88;5091547;28;20360;-56
2022/04/04 01:42:32;;;;;;;14.48;6.88;;;;;;;3.99;nan;101477.75;5090368;28;20078;-56
2022/04/04 01:44:57;;;;;;;11.95;7.18;;;;;;;4.45;nan;101530.94;5090490;28;20518;-56
2022/04/04 01:47:24;;;;;;;12.30;7.53;;;;;;;4.49;nan;101540.50;5091900;28;20476;-57
2022/04/04 01:49:49;;;;;;;11.55;7.40;;;;;;;4.53;nan;101534.41;5092195;28;20072;-56
2022/04/04 01:52:15;;;;;;;17.85;8.98;;;;;;;4.55;nan;101536.16;5091867;28;20121;-57
2022/04/04 01:54:40;;;;;;;13.02;9.00;;;;;;;4.14;nan;101461.31;5090423;28;20029;-56
2022/04/04 01:57:06;;;;;;;17.60;9.05;;;;;;;4.11;nan;101445.69;5090135;28;20055;-55
2022/04/04 01:59:31;;;;;;;13.13;8.77;;;;;;;4.14;nan;101457.00;5090265;28;20024;-55
2022/04/04 02:01:57;;;;;;;11.65;9.77;;;;;;;4.53;nan;101508.34;5090394;28;20330;-54
2022/04/04 02:04:22;;;;;;;13.70;9.15;;;;;;;4.51;nan;101504.88;5091403;28;20388;-55
2022/04/04 02:06:47;;;;;;;14.75;9.63;;;;;;;4.49;nan;101494.44;5090284;28;20032;-54
2022/04/04 02:09:13;;;;;;;11.13;9.18;;;;;;;4.47;nan;101477.91;5089958;28;20052;-55
2022/04/04 02:11:38;;;;;;;11.70;9.15;;;;;;;4.34;nan;101455.31;5091365;28;20027;-54
2022/04/04 02:14:04;;;;;;;16.13;8.75;;;;;;;4.53;nan;101485.75;5090370;28;20139;-51
2022/04/04 02:16:29;;;;;;;14.32;9.20;;;;;;;4.53;nan;101477.06;5091196;28;20028;-56
2022/04/04 02:18:55;;;;;;;13.45;9.23;;;;;;;4.57;nan;101452.75;5091520;28;20568;-55
2022/04/04 02:21:20;;;;;;;14.82;8.43;;;;;;;4.65;nan;101460.56;5091626;28;20054;-56
2022/04/04 02:23:45;;;;;;;12.13;9.48;;;;;;;4.73;nan;101472.75;5091379;28;20172;-56
2022/04/04 02:26:11;;;;;;;15.65;9.38;;;;;;;4.67;nan;101435.41;5091494;28;20036;-55
2022/04/04 02:28:37;;;;;;;15.35;8.20;;;;;;;4.75;nan;101458.00;5090255;28;20396;-57
2022/04/04 02:31:02;;;;;;;14.50;8.93;;;;;;;4.75;nan;101451.91;5090384;28;20418;-56
2022/04/04 02:33:28;;;;;;;9.13;8.23;;;;;;;4.75;nan;101442.34;5107083;28;20051;-53
2022/04/04 02:35:54;;;;;;;14.13;9.05;;;;;;;4.39;nan;101366.69;5091443;28;20431;-54
2022/04/04 02:38:21;;;;;;;17.85;8.77;;;;;;;4.74;nan;101429.28;5091257;28;20028;-53
2022/04/04 02:40:47;;;;;;;15.15;9.30;;;;;;;4.70;nan;101428.41;5089957;28;20074;-54
2022/04/04 02:43:12;;;;;;;13.43;9.20;;;;;;;4.32;nan;101333.69;5091355;28;20457;-54
2022/04/04 02:45:38;;;;;;;12.88;9.30;;;;;;;4.76;nan;101410.16;5091127;28;20075;-58
2022/04/04 02:48:04;;;;;;;13.43;10.00;;;;;;;4.57;nan;101344.97;5090216;28;20036;-52
2022/04/04 02:50:29;;;;;;;19.92;10.60;;;;;;;4.88;nan;101396.25;5091475;28;20045;-55
2022/04/04 02:52:55;;;;;;;14.50;9.70;;;;;;;4.93;nan;101399.75;5094036;28;20028;-55
2022/04/04 02:58:05;;;;;;;13.38;9.80;;;;;;;4.59;nan;101328.47;5095020;28;20039;-56
2022/04/04 03:00:31;;;;;;;14.82;10.20;;;;;;;4.48;nan;101283.28;5095087;28;20040;-56
2022/04/04 03:02:57;;;;;;;15.18;10.13;;;;;;;4.90;nan;101347.59;5095045;28;20028;-57
2022/04/04 03:05:22;;;;;;;14.82;9.77;;;;;;;4.41;nan;101253.75;5093797;28;20032;-55
2022/04/04 03:07:48;;;;;;;15.68;9.98;;;;;;;4.65;nan;101293.69;5093460;28;20499;-57
2022/04/04 03:10:13;;;;;;;16.63;10.05;;;;;;;4.90;nan;101324.09;5095112;28;20085;-57
2022/04/04 03:12:41;;;;;;;13.68;9.73;;;;;;;5.05;nan;101348.41;5093573;28;20036;-54
2022/04/04 03:15:08;;;;;;;17.75;10.40;;;;;;;5.09;nan;101344.94;5093528;28;20036;-56
2022/04/04 03:17:34;;;;;;;16.55;9.95;;;;;;;4.77;nan;101291.94;5094839;28;20062;-57
2022/04/04 03:19:59;;;;;;;17.48;10.20;;;;;;;4.66;nan;101269.38;5094553;28;20469;-57
2022/04/04 03:22:25;;;;;;;18.40;11.00;;;;;;;5.10;nan;101344.06;5093146;28;20051;-56
2022/04/04 03:24:50;;;;;;;19.58;9.95;;;;;;;5.12;nan;101328.41;5093375;28;20036;-55
2022/04/04 03:27:16;;;;;;;13.95;9.27;;;;;;;4.71;nan;101246.75;5094517;28;20044;-56
2022/04/04 03:29:41;;;;;;;12.55;9.38;;;;;;;5.04;nan;101294.50;5093312;28;20036;-56
2022/04/04 03:32:07;;;;;;;13.02;9.30;;;;;;;4.97;nan;101266.69;5094264;28;20039;-55
2022/04/04 03:34:33;;;;;;;12.90;9.20;;;;;;;5.17;nan;101295.31;5092647;28;20131;-57
2022/04/04 03:36:58;;;;;;;16.13;9.75;;;;;;;5.26;nan;101304.84;5092585;28;20123;-55
2022/04/04 03:39:24;;;;;;;15.00;8.50;;;;;;;5.28;nan;101295.31;5094104;28;20028;-55
2022/04/04 03:41:49;;;;;;;17.52;9.45;;;;;;;4.89;nan;101220.63;5094173;28;20028;-57
2022/04/04 03:44:15;;;;;;;15.10;8.88;;;;;;;5.28;nan;101283.13;5092770;28;20044;-55
2022/04/04 03:46:40;;;;;;;14.18;8.68;;;;;;;4.89;nan;101195.41;5075670;28;20077;-58
2022/04/04 03:49:06;;;;;;;14.23;8.18;;;;;;;5.30;nan;101247.44;5093827;28;20032;-56
2022/04/04 03:51:31;;;;;;;17.00;8.98;;;;;;;5.36;nan;101267.44;5093766;28;20040;-56
2022/04/04 03:53:57;;;;;;;16.70;8.63;;;;;;;5.41;nan;101271.75;5093808;28;20081;-56
2022/04/04 03:56:22;;;;;;;16.90;9.07;;;;;;;5.10;nan;101207.50;5093913;28;20028;-54
2022/04/04 03:58:49;;;;;;;14.23;7.93;;;;;;;5.45;nan;101256.94;5092458;28;20028;-57
2022/04/04 04:01:15;;;;;;;15.05;8.68;;;;;;;5.48;nan;101249.09;5093808;28;20043;-55
2022/04/04 04:03:40;;;;;;;15.40;8.80;;;;;;;5.49;nan;101245.59;5093263;28;20043;-56
2022/04/04 04:06:11;;;;;;;12.27;8.07;;;;;;;5.10;nan;101173.59;5093251;28;20039;-58
2022/04/04 04:08:41;;;;;;;13.20;8.18;;;;;;;5.50;nan;101231.66;5093613;28;20112;-57
2022/04/04 04:11:07;;;;;;;10.67;8.47;;;;;;;5.49;nan;101224.69;5093272;28;20464;-54
2022/04/04 04:13:32;;;;;;;13.45;8.20;;;;;;;5.51;nan;101226.47;5092100;28;20032;-57
2022/04/04 04:15:58;;;;;;;11.95;8.02;;;;;;;5.51;nan;101222.97;5092104;28;20117;-55
2022/04/04 04:18:24;;;;;;;10.90;8.13;;;;;;;5.46;nan;101228.19;5093228;28;20036;-55
2022/04/04 04:20:50;;;;;;;12.50;7.97;;;;;;;5.46;nan;101232.53;5093220;28;20064;-55
2022/04/04 04:23:16;;;;;;;11.73;7.95;;;;;;;5.45;nan;101225.63;5092205;28;20503;-55
2022/04/04 04:25:42;;;;;;;9.63;8.02;;;;;;;5.43;nan;101209.94;5093442;28;20114;-56
2022/04/04 04:28:09;;;;;;;13.73;7.70;;;;;;;4.42;nan;101033.06;5093175;28;20110;-56
2022/04/04 04:30:34;;;;;;;14.38;8.20;;;;;;;5.14;nan;101127.50;5091829;28;20135;-54
2022/04/04 04:33:01;;;;;;;14.00;8.00;;;;;;;5.50;nan;101203.81;5093109;28;20144;-55
2022/04/04 04:35:26;;;;;;;14.48;7.88;;;;;;;5.42;nan;101166.47;5093114;28;20036;-56
2022/04/04 04:37:52;;;;;;;13.77;8.23;;;;;;;5.21;nan;101130.03;5093455;28;20097;-57
2022/04/04 04:40:18;;;;;;;11.68;7.72;;;;;;;5.28;nan;101136.97;5092710;28;20050;-57
2022/04/04 04:42:45;;;;;;;15.18;8.20;;;;;;;5.24;nan;101134.38;5093193;28;20036;-56
2022/04/04 04:45:11;;;;;;;12.30;8.15;;;;;;;5.14;nan;101094.41;5091704;28;20036;-58
2022/04/04 04:47:36;;;;;;;15.55;8.50;;;;;;;5.56;nan;101168.97;5092864;28;20035;-52
2022/04/04 04:50:03;;;;;;;14.13;7.90;;;;;;;5.52;nan;101159.41;5092645;28;20039;-56
2022/04/04 04:52:30;;;;;;;12.88;8.63;;;;;;;5.22;nan;101104.81;5091452;28;20054;-58
2022/04/04 04:54:55;;;;;;;9.13;7.22;;;;;;;5.43;nan;101136.00;5091623;28;20445;-57
2022/04/04 04:57:21;;;;;;;10.13;7.57;;;;;;;5.41;nan;101137.72;5092774;28;20123;-57
2022/04/04 04:59:47;;;;;;;11.05;7.43;;;;;;;5.02;nan;101052.75;5092608;28;20039;-55
2022/04/04 05:02:12;;;;;;;13.35;7.68;;;;;;;5.09;nan;101044.88;5091433;28;20057;-57
2022/04/04 05:04:38;;;;;;;11.18;7.55;;;;;;;5.52;nan;101123.72;5091266;28;20031;-55
2022/04/04 05:07:05;;;;;;;11.38;7.45;;;;;;;5.40;nan;101104.69;5092835;28;20523;-58
2022/04/04 05:09:30;;;;;;;12.20;7.78;;;;;;;5.51;nan;101108.09;5092619;28;20119;-58
2022/04/04 05:11:55;;;;;;;11.57;7.70;;;;;;;5.46;nan;101108.09;5092360;28;20123;-57
2022/04/04 05:14:21;;;;;;;13.52;7.10;;;;;;;5.10;nan;101040.53;5090439;28;20050;-58
2022/04/04 05:16:47;;;;;;;10.10;7.60;;;;;;;5.46;nan;101083.72;5092109;28;20048;-55
2022/04/04 05:19:16;;;;;;;15.35;8.07;;;;;;;5.40;nan;101075.97;5092085;28;20556;-55
2022/04/04 05:21:42;;;;;;;10.80;7.40;;;;;;;5.51;nan;101092.44;5091934;28;20340;-57
2022/04/04 05:24:08;;;;;;;13.65;8.15;;;;;;;5.55;nan;101089.75;5092160;28;20027;-57
2022/04/04 05:26:33;;;;;;;10.40;8.20;;;;;;;5.47;nan;101060.25;5091001;28;20036;-56
2022/04/04 05:28:59;;;;;;;12.82;8.30;;;;;;;5.41;nan;101041.16;5091189;28;20024;-56
2022/04/04 05:31:25;;;;;;;14.15;9.30;;;;;;;5.25;nan;101013.44;5092294;28;20040;-55
2022/04/04 05:33:50;;;;;;;15.73;9.57;;;;;;;5.54;nan;101045.41;5090489;28;20060;-55
2022/04/04 05:36:16;;;;;;;22.10;9.38;;;;;;;5.13;nan;100984.84;5091885;28;20032;-55
2022/04/04 05:38:41;;;;;;;11.60;8.88;;;;;;;5.22;nan;101006.50;5090625;28;20052;-57
2022/04/04 05:41:07;;;;;;;17.20;10.00;;;;;;;5.47;nan;101047.19;5092061;28;20047;-56
2022/04/04 05:43:32;;;;;;;13.85;10.13;;;;;;;5.46;nan;101052.41;5090272;28;20027;-54
2022/04/04 05:45:57;;;;;;;15.38;10.73;;;;;;;5.39;nan;101029.84;5091600;28;20047;-53
2022/04/04 05:48:25;;;;;;;17.95;11.18;;;;;;;5.27;nan;101033.44;5091544;28;20032;-51
2022/04/04 05:50:51;;;;;;;13.07;10.82;;;;;;;5.15;nan;101035.25;5091813;28;20036;-55
2022/04/04 05:53:16;;;;;;;13.80;10.95;;;;;;;4.64;nan;100953.03;5090431;28;20032;-52
2022/04/04 05:55:42;;;;;;;16.70;12.15;;;;;;;4.95;nan;100986.72;5091761;28;20091;-53
2022/04/04 05:58:07;;;;;;;24.95;12.20;;;;;;;4.97;nan;101031.91;5092048;28;20043;-53
2022/04/04 06:00:32;;;;;;;16.35;12.85;;;;;;;4.90;nan;101016.31;5091932;28;20085;-54
2022/04/04 06:02:58;;;;;;;16.52;13.07;;;;;;;4.91;nan;101020.63;5091900;28;20040;-54
2022/04/04 06:05:23;;;;;;;17.75;13.18;;;;;;;4.89;nan;101025.00;5090472;28;20040;-54
2022/04/04 06:07:48;;;;;;;17.25;12.80;;;;;;;4.83;nan;101005.06;5089945;28;20024;-51
2022/04/04 06:10:15;;;;;;;18.27;12.55;;;;;;;4.56;nan;100932.22;5090040;28;20036;-55
2022/04/04 06:12:41;;;;;;;12.63;9.88;;;;;;;4.51;nan;100932.25;5090093;28;20036;-54
2022/04/04 06:15:07;;;;;;;13.57;7.43;;;;;;;4.93;nan;100993.66;5091308;28;20039;-52
2022/04/04 06:17:32;;;;;;;13.75;8.57;;;;;;;4.97;nan;100978.84;5091289;28;20092;-52
2022/04/04 06:19:58;;;;;;;9.15;8.20;;;;;;;5.03;nan;100984.91;5089253;28;20043;-54
2022/04/04 06:22:23;;;;;;;11.23;7.07;;;;;;;5.03;nan;100986.63;5072722;28;20040;-54
2022/04/04 06:24:49;;;;;;;12.57;8.30;;;;;;;4.89;nan;100954.59;5091463;28;20032;-53
2022/04/04 06:27:18;;;;;;;13.07;8.98;;;;;;;5.04;nan;100976.22;5077610;28;20058;-53
2022/04/04 06:29:45;;;;;;;13.05;8.10;;;;;;;5.02;nan;100966.66;5094998;28;20043;-53
2022/04/04 06:32:10;;;;;;;11.05;8.10;;;;;;;4.73;nan;100901.66;5095090;28;20397;-53
2022/04/04 06:34:36;;;;;;;11.63;8.25;;;;;;;5.16;nan;100949.16;5094896;28;20111;-55
2022/04/04 06:37:01;;;;;;;12.88;7.78;;;;;;;5.24;nan;100949.06;5094976;28;20156;-53
2022/04/04 06:39:26;;;;;;;12.75;7.57;;;;;;;4.94;nan;100870.19;5093984;28;20412;-48
2022/04/04 06:41:52;;;;;;;12.82;6.32;;;;;;;5.37;nan;100954.16;5095562;28;20035;-53
2022/04/04 06:44:17;;;;;;;21.40;7.97;;;;;;;5.08;nan;100897.03;5095083;28;20060;-54
2022/04/04 06:46:43;;;;;;;13.07;6.90;;;;;;;5.05;nan;100881.41;5094860;28;20031;-51
2022/04/04 06:49:08;;;;;;;13.20;6.60;;;;;;;5.33;nan;100921.16;5094754;28;20043;-55
2022/04/04 06:51:34;;;;;;;11.60;4.10;;;;;;;5.46;nan;100932.31;5095169;28;20245;-54
2022/04/04 06:54:05;;;;;;;6.43;3.30;;;;;;;5.51;nan;100933.16;5076944;28;20032;-54
2022/04/04 06:56:31;;;;;;;10.07;3.07;;;;;;;5.50;nan;100918.38;5093598;28;20040;-53
2022/04/04 06:58:57;;;;;;;7.10;3.95;;;;;;;5.60;nan;100943.50;5094661;28;20365;-51
2022/04/04 07:01:22;;;;;;;9.02;4.05;;;;;;;5.59;nan;100928.72;5094581;28;20111;-54
2022/04/04 07:03:48;;;;;;;9.65;3.63;;;;;;;5.58;nan;100933.06;5094845;28;20503;-51
2022/04/04 07:06:13;;;;;;;6.35;2.97;;;;;;;5.50;nan;100911.41;5094665;28;20032;-53
2022/04/04 07:08:39;;;;;;;7.78;3.95;;;;;;;5.56;nan;100929.63;5094865;28;20055;-51
2022/04/04 07:11:05;;;;;;;8.20;3.70;;;;;;;5.52;nan;100900.94;5076620;28;20028;-60
2022/04/04 07:13:34;;;;;;;7.05;3.53;;;;;;;5.48;nan;100935.81;5092914;28;20057;-49
2022/04/04 07:15:59;;;;;;;8.23;4.22;;;;;;;5.42;nan;100914.97;5094275;28;20119;-52
2022/04/04 07:18:24;;;;;;;10.38;4.32;;;;;;;5.30;nan;100908.13;5093335;28;20127;-53
2022/04/04 07:20:50;;;;;;;11.77;4.50;;;;;;;5.14;nan;100890.88;5094330;28;20139;-49
2022/04/04 07:23:15;;;;;;;11.77;5.10;;;;;;;5.18;nan;100891.72;5093113;28;20028;-53
2022/04/04 07:25:40;;;;;;;11.63;5.15;;;;;;;5.17;nan;100885.63;5094172;28;20028;-50
2022/04/04 07:28:08;;;;;;;9.50;4.45;;;;;;;4.77;nan;100826.88;5094299;28;20457;-53
2022/04/04 07:30:34;;;;;;;10.43;5.60;;;;;;;5.16;nan;100880.44;5093942;28;20032;-52
2022/04/04 07:33:01;;;;;;;8.73;5.70;;;;;;;5.10;nan;100832.66;5093971;28;20040;-51
2022/04/04 07:35:27;;;;;;;13.32;5.90;;;;;;;4.82;nan;100797.28;5093918;28;20412;-56
2022/04/04 07:37:52;;;;;;;11.07;6.38;;;;;;;5.19;nan;100860.41;5091777;28;20032;-52
2022/04/04 07:40:20;;;;;;;12.50;6.10;;;;;;;5.16;nan;100849.13;5076016;28;20115;-53
2022/04/04 07:42:46;;;;;;;12.45;6.47;;;;;;;4.77;nan;100783.44;5072941;28;20036;-54
2022/04/04 07:45:15;;;;;;;12.75;6.45;;;;;;;4.40;nan;100728.19;5085237;28;20028;-54
2022/04/04 07:47:42;;;;;;;14.88;6.28;;;;;;;5.06;nan;100810.09;5106991;28;20036;-54
2022/04/04 07:50:09;;;;;;;14.43;7.03;;;;;;;5.05;nan;100815.31;5109122;28;20039;-54
2022/04/04 07:52:34;;;;;;;13.57;7.13;;;;;;;4.41;nan;100708.16;5087189;28;20059;-55
2022/04/04 07:55:00;;;;;;;14.90;7.68;;;;;;;5.05;nan;100815.31;5075343;28;20454;-54
2022/04/04 07:57:25;;;;;;;14.90;8.25;;;;;;;4.64;nan;100740.09;5072015;28;20041;-54
2022/04/04 07:59:51;;;;;;;14.80;8.20;;;;;;;5.08;nan;100810.06;5073530;28;20220;-54
2022/04/04 08:02:17;;;;;;;15.52;7.20;;;;;;;5.10;nan;100817.00;5072424;28;20131;-57
2022/04/04 08:04:43;;;;;;;11.57;7.22;;;;;;;5.13;nan;100818.72;5077977;28;20036;-55
2022/04/04 08:07:08;;;;;;;8.80;5.97;;;;;;;5.17;nan;100807.34;5079762;28;20081;-57
2022/04/04 08:09:33;;;;;;;18.42;7.60;;;;;;;4.75;nan;100712.19;5086961;28;20115;-54
2022/04/04 08:11:59;;;;;;;17.50;7.38;;;;;;;4.82;nan;100737.31;5089343;28;20115;-57
2022/04/04 08:14:24;;;;;;;13.75;7.22;;;;;;;4.97;nan;100760.63;5092297;28;20040;-57
2022/04/04 08:16:50;;;;;;;16.30;7.57;;;;;;;5.22;nan;100792.53;5091949;28;20039;-57
2022/04/04 08:19:16;;;;;;;17.50;7.80;;;;;;;4.89;nan;100738.09;5091929;28;20055;-56
2022/04/04 08:21:42;;;;;;;16.63;9.25;;;;;;;5.25;nan;100797.72;5092299;28;20039;-57
2022/04/04 08:24:08;;;;;;;19.90;7.72;;;;;;;4.85;nan;100731.19;5092425;28;20373;-57
2022/04/04 08:26:34;;;;;;;16.00;7.15;;;;;;;5.21;nan;100780.34;5090870;28;20124;-57
2022/04/04 08:29:00;;;;;;;16.52;7.30;;;;;;;5.15;nan;100771.72;5092163;28;20043;-57
2022/04/04 08:31:25;;;;;;;22.63;8.15;;;;;;;5.10;nan;100772.66;5092457;28;20366;-57
2022/04/04 08:33:51;;;;;;;17.40;7.13;;;;;;;5.01;nan;100757.09;5092510;28;20432;-56
2022/04/04 08:36:16;;;;;;;18.00;7.65;;;;;;;5.14;nan;100778.69;5092118;28;20082;-58
2022/04/04 08:38:42;;;;;;;14.57;6.88;;;;;;;4.83;nan;100719.91;5091967;28;20068;-59
2022/04/04 08:41:08;;;;;;;15.57;7.20;;;;;;;5.16;nan;100766.50;5092045;28;20040;-59
2022/04/04 08:43:37;;;;;;;15.65;6.97;;;;;;;5.19;nan;100784.72;5090690;28;20067;-58
2022/04/04 08:46:06;;;;;;;16.67;7.53;;;;;;;5.23;nan;100739.44;5090704;28;20040;-59
2022/04/04 08:48:34;;;;;;;16.08;6.15;;;;;;;4.95;nan;100709.34;5089476;28;20032;-59
2022/04/04 08:50:59;;;;;;;19.17;8.18;;;;;;;4.88;nan;100687.69;5092139;28;20038;-58
2022/04/04 08:53:25;;;;;;;18.20;7.63;;;;;;;5.29;nan;100741.97;5091648;28;20024;-57
2022/04/04 08:55:50;;;;;;;18.75;8.00;;;;;;;5.29;nan;100747.19;5091509;28;20450;-57
2022/04/04 08:58:16;;;;;;;16.35;6.85;;;;;;;5.32;nan;100736.72;5091121;28;20123;-57
2022/04/04 09:00:42;;;;;;;21.40;7.15;;;;;;;5.31;nan;100708.03;5091037;28;20024;-60
2022/04/04 09:03:08;;;;;;;13.45;7.20;;;;;;;5.37;nan;100726.25;5091211;28;20497;-57
2022/04/04 09:05:35;;;;;;;15.65;6.95;;;;;;;5.43;nan;100729.59;5089876;28;20062;-57
2022/04/04 09:08:05;;;;;;;27.60;8.32;;;;;;;5.45;nan;100759.19;5089585;28;20029;-57
2022/04/04 09:10:33;;;;;;;13.23;6.63;;;;;;;5.47;nan;100728.69;5089189;28;20126;-59
2022/04/04 09:13:12;;;;;;;14.77;6.25;;;;;;;5.15;nan;100646.47;5047141;28;20080;-59
2022/04/04 09:15:51;;;;;;;28.08;7.28;;;;;;;5.54;nan;100708.59;5049602;28;20021;-59
2022/04/04 09:18:17;;;;;;;20.63;7.32;;;;;;;5.56;nan;100698.97;5050599;28;20048;-59
2022/04/04 09:20:52;;;;;;;16.42;6.25;;;;;;;5.67;nan;100717.97;5050360;28;20071;-59
2022/04/04 09:23:18;;;;;;;14.32;6.25;;;;;;;5.69;nan;100735.34;5050692;28;20591;-59
2022/04/04 09:25:43;;;;;;;16.38;5.85;;;;;;;5.34;nan;100642.75;5049318;28;20116;-59
2022/04/04 09:28:17;;;;;;;15.02;4.63;;;;;;;5.61;nan;100674.53;5049619;28;20522;-60
2022/04/04 09:30:43;;;;;;;13.75;5.38;;;;;;;5.63;nan;100664.91;5049242;28;20094;-60
2022/04/04 09:33:13;;;;;;;17.45;5.07;;;;;;;5.84;nan;100689.00;5049149;28;20051;-58
2022/04/04 09:35:47;;;;;;;12.18;4.82;;;;;;;5.90;nan;100683.69;5049424;28;20064;-59
2022/04/04 09:38:14;;;;;;;10.52;4.68;;;;;;;5.84;nan;100679.41;5050159;28;20485;-59
2022/04/04 09:40:39;;;;;;;15.98;5.30;;;;;;;5.90;nan;100679.34;5050228;28;20029;-60
2022/04/04 09:43:05;;;;;;;15.05;4.60;;;;;;;5.87;nan;100686.34;5049006;28;20214;-60
2022/04/04 09:45:30;;;;;;;12.20;4.85;;;;;;;5.76;nan;100689.09;5048933;28;20116;-59
2022/04/04 09:48:11;;;;;;;14.40;5.15;;;;;;;5.74;nan;100667.38;5050057;28;20230;-59
2022/04/04 09:50:44;;;;;;;10.18;3.88;;;;;;;5.86;nan;100671.59;5049084;28;20359;-60
2022/04/04 09:53:22;;;;;;;18.08;5.45;;;;;;;5.75;nan;100665.63;5049979;28;20123;-60
2022/04/04 09:56:00;;;;;;;15.32;5.18;;;;;;;5.76;nan;100672.56;5049867;28;20039;-61
2022/04/04 09:58:27;;;;;;;14.77;5.25;;;;;;;5.85;nan;100681.16;5048655;28;20474;-61
2022/04/04 10:00:54;;;;;;;13.18;4.60;;;;;;;5.52;nan;100609.38;5049480;28;20575;-60
2022/04/04 10:03:21;;;;;;;13.43;4.32;;;;;;;5.59;nan;100600.59;5050492;28;20063;-58
2022/04/04 10:05:50;;;;;;;22.05;4.72;;;;;;;5.97;nan;100665.31;5048651;28;20434;-62
2022/04/04 10:08:20;;;;;;;19.70;6.57;;;;;;;5.55;nan;100566.72;5048571;28;20135;-62
2022/04/04 10:10:46;;;;;;;18.17;4.75;;;;;;;5.71;nan;100583.88;5048559;28;20044;-62
2022/04/04 10:13:13;;;;;;;21.67;4.88;;;;;;;6.09;nan;100644.19;5048668;28;20048;-62
2022/04/04 10:15:38;;;;;;;17.60;5.03;;;;;;;6.11;nan;100631.97;5048591;28;20033;-62
2022/04/04 10:18:05;;;;;;;12.13;4.03;;;;;;;5.79;nan;100578.50;5049952;28;20136;-63
2022/04/04 10:20:30;;;;;;;20.10;4.78;;;;;;;6.17;nan;100655.38;5048504;28;20037;-62
2022/04/04 10:22:56;;;;;;;10.98;4.03;;;;;;;6.23;nan;100636.97;5049852;28;20444;-62
2022/04/04 10:25:25;;;;;;;18.67;5.15;;;;;;;6.03;nan;100591.16;5049672;28;20036;-62
2022/04/04 10:27:51;;;;;;;14.25;5.00;;;;;;;6.15;nan;100610.13;5049865;28;20036;-63
2022/04/04 10:30:17;;;;;;;14.70;4.90;;;;;;;6.32;nan;100646.41;5048214;28;20120;-62
2022/04/04 10:32:50;;;;;;;13.02;4.97;;;;;;;6.34;nan;100633.28;5048354;28;20155;-63
2022/04/04 10:35:22;;;;;;;14.73;4.07;;;;;;;6.18;nan;100597.00;5048177;28;20413;-62
2022/04/04 10:37:48;;;;;;;17.98;4.93;;;;;;;6.04;nan;100570.22;5047892;28;20045;-63
2022/04/04 10:40:25;;;;;;;13.85;4.63;;;;;;;6.00;nan;100558.13;5048271;28;20112;-61
2022/04/04 10:43:09;;;;;;;16.23;4.82;;;;;;;6.47;nan;100621.72;5049622;28;20037;-62
2022/04/04 10:45:58;;;;;;;20.95;5.57;;;;;;;6.46;nan;100620.84;5049627;28;20091;-63
2022/04/04 10:48:31;;;;;;;15.00;4.18;;;;;;;6.52;nan;100612.91;5048383;28;20502;-62
2022/04/04 10:51:17;;;;;;;23.92;5.20;;;;;;;6.25;nan;100549.84;5049186;28;20029;-63
2022/04/04 10:53:49;;;;;;;13.55;4.78;;;;;;;6.62;nan;100616.19;5049811;28;20029;-63
2022/04/04 10:56:22;;;;;;;16.27;4.70;;;;;;;6.60;nan;100612.72;5049579;28;20079;-61
2022/04/04 10:58:50;;;;;;;11.20;3.75;;;;;;;6.64;nan;100627.47;5048003;28;20029;-64
2022/04/04 11:01:18;;;;;;;11.40;3.40;;;;;;;6.34;nan;100544.41;5048909;28;20151;-65
2022/04/04 11:03:44;;;;;;;10.68;3.53;;;;;;;6.66;nan;100597.78;5048146;28;20078;-62
2022/04/04 11:09:14;;;;;;;8.63;3.47;;;;;;;6.77;nan;100568.81;5049513;28;20051;-62
2022/04/04 11:11:41;;;;;;;12.48;3.90;;;;;;;6.81;nan;100591.38;5049544;28;20504;-63
2022/04/04 11:14:11;;;;;;;12.88;3.53;;;;;;;6.67;nan;100565.53;5052775;28;20031;-63
2022/04/04 11:17:23;;;;;;;8.63;3.28;;;;;;;6.90;nan;100570.25;5051241;28;20488;-62
2022/04/04 11:20:10;;;;;;;14.20;4.03;;;;;;;6.91;nan;100571.13;5052776;28;20025;-64
2022/04/04 11:22:41;;;;;;;7.35;2.85;;;;;;;6.91;nan;100555.44;5052787;28;20119;-64
2022/04/04 11:25:16;;;;;;;9.98;3.13;;;;;;;6.64;nan;100510.66;5051540;28;20041;-63
2022/04/04 11:27:47;;;;;;;10.80;3.15;;;;;;;6.61;nan;100494.16;5052572;28;20495;-63
2022/04/04 11:30:16;;;;;;;;;;;;;;;7.01;nan;100555.19;5052046;28;20334;-64
2022/04/04 11:32:42;;;;;;;8.15;2.65;;;;;;;7.05;nan;100535.03;5051324;28;19924;-63
2022/04/04 11:35:20;;;;;;;6.82;3.03;;;;;;;7.06;nan;100549.84;5051221;28;20297;-64
2022/04/04 11:37:55;;;;;;;5.47;2.75;;;;;;;7.06;nan;100549.84;5052350;28;20056;-64
2022/04/04 11:40:44;;;;;;;11.02;2.67;;;;;;;7.06;nan;100553.34;5051250;28;20079;-65
2022/04/04 11:43:13;;;;;;;8.60;3.15;;;;;;;7.10;nan;100547.13;5052354;28;20481;-65
2022/04/04 11:45:40;;;;;;;6.15;2.70;;;;;;;7.11;nan;100537.50;5052279;28;20102;-63